createdAt,value
2024-02-02T00:00:32.779Z,93.87
2024-02-02T00:01:27.771Z,93.83
2024-02-02T00:02:22.760Z,93.92
2024-02-02T00:03:17.876Z,93.81
2024-02-02T00:04:13.020Z,93.82
2024-02-02T00:05:07.960Z,93.86
2024-02-02T00:06:03.115Z,93.90
2024-02-02T00:06:58.118Z,93.92
2024-02-02T00:07:53.172Z,93.92
2024-02-02T00:08:48.309Z,93.89
2024-02-02T00:09:43.286Z,93.88
2024-02-02T00:10:38.390Z,93.84
2024-02-02T00:11:34.279Z,93.79
2024-02-02T00:12:29.207Z,93.75
2024-02-02T00:13:23.508Z,93.74
2024-02-02T00:14:18.736Z,93.72
2024-02-02T00:15:13.642Z,93.67
2024-02-02T00:16:08.681Z,93.66
2024-02-02T00:17:03.703Z,93.65
2024-02-02T00:17:58.818Z,93.63
2024-02-02T00:18:53.942Z,93.60
2024-02-02T00:19:48.993Z,93.60
2024-02-02T00:20:43.897Z,93.63
2024-02-02T00:21:38.920Z,93.65
2024-02-02T00:22:33.928Z,93.70
2024-02-02T00:23:29.055Z,93.73
2024-02-02T00:24:24.317Z,93.78
2024-02-02T00:25:21.385Z,93.80
2024-02-02T00:26:16.163Z,93.75
2024-02-02T00:27:11.537Z,93.69
2024-02-02T00:28:06.588Z,93.70
2024-02-02T00:29:02.508Z,93.69
2024-02-02T00:29:57.931Z,93.64
2024-02-02T00:30:53.436Z,93.64
2024-02-02T00:31:48.448Z,93.61
2024-02-02T00:32:43.930Z,93.67
2024-02-02T00:33:39.729Z,93.71
2024-02-02T00:34:35.030Z,93.73
2024-02-02T00:35:30.022Z,93.74
2024-02-02T00:36:26.810Z,93.75
2024-02-02T00:37:21.880Z,93.69
2024-02-02T00:38:17.794Z,93.66
2024-02-02T00:39:12.970Z,93.64
2024-02-02T00:40:08.878Z,93.64
2024-02-02T00:41:03.928Z,93.61
2024-02-02T00:41:59.134Z,93.63
2024-02-02T00:42:55.053Z,93.62
2024-02-02T00:43:50.069Z,93.67
2024-02-02T00:44:45.392Z,93.67
2024-02-02T00:45:41.181Z,93.68
2024-02-02T00:46:36.355Z,93.64
2024-02-02T00:47:31.681Z,93.58
2024-02-02T00:48:28.709Z,93.55
2024-02-02T00:49:22.990Z,93.52
2024-02-02T00:50:18.718Z,93.50
2024-02-02T00:51:14.063Z,93.44
2024-02-02T00:52:09.164Z,93.45
2024-02-02T00:53:04.982Z,93.47
2024-02-02T00:54:00.222Z,93.45
2024-02-02T00:54:55.998Z,93.49
2024-02-02T00:55:51.149Z,93.50
2024-02-02T00:56:46.485Z,93.49
2024-02-02T00:57:42.153Z,93.48
2024-02-02T00:58:37.376Z,93.48
2024-02-02T00:59:32.521Z,93.55
2024-02-02T01:00:29.208Z,93.58
2024-02-02T01:01:24.190Z,93.59
2024-02-02T01:02:19.930Z,93.67
2024-02-02T01:03:15.166Z,93.73
2024-02-02T01:04:10.314Z,93.75
2024-02-02T01:05:06.012Z,93.75
2024-02-02T01:06:01.310Z,93.74
2024-02-02T01:06:57.169Z,93.71
2024-02-02T01:07:52.187Z,93.68
2024-02-02T01:08:47.630Z,93.66
2024-02-02T01:09:43.369Z,93.63
2024-02-02T01:10:38.501Z,93.64
2024-02-02T01:11:33.664Z,93.62
2024-02-02T01:12:29.974Z,93.66
2024-02-02T01:13:25.358Z,93.62
2024-02-02T01:14:20.957Z,93.62
2024-02-02T01:15:16.222Z,93.63
2024-02-02T01:16:11.287Z,93.67
2024-02-02T01:17:07.083Z,93.65
2024-02-02T01:18:02.325Z,93.68
2024-02-02T01:18:58.289Z,93.68
2024-02-02T01:19:53.299Z,93.70
2024-02-02T01:20:48.453Z,93.69
2024-02-02T01:21:44.173Z,93.68
2024-02-02T01:22:39.392Z,93.68
2024-02-02T01:23:34.666Z,93.67
2024-02-02T01:24:31.082Z,93.70
2024-02-02T01:25:26.189Z,93.73
2024-02-02T01:26:21.830Z,93.75
2024-02-02T01:27:16.478Z,93.77
2024-02-02T01:28:13.138Z,93.85
2024-02-02T01:29:08.458Z,93.84
2024-02-02T01:30:03.657Z,93.86
2024-02-02T01:31:00.123Z,93.92
2024-02-02T01:31:55.362Z,93.93
2024-02-02T01:32:53.836Z,93.93
2024-02-02T01:33:46.305Z,93.93
2024-02-02T01:34:41.481Z,93.89
2024-02-02T01:35:37.194Z,93.88
2024-02-02T01:36:32.320Z,93.81
2024-02-02T01:37:28.084Z,93.78
2024-02-02T01:38:23.224Z,93.78
2024-02-02T01:39:18.587Z,93.79
2024-02-02T01:40:14.283Z,93.81
2024-02-02T01:41:09.673Z,93.77
2024-02-02T01:42:04.742Z,93.75
2024-02-02T01:43:01.037Z,93.75
2024-02-02T01:43:56.180Z,93.74
2024-02-02T01:44:51.515Z,93.69
2024-02-02T01:45:46.615Z,93.66
2024-02-02T01:46:41.777Z,93.68
2024-02-02T01:47:37.662Z,93.67
2024-02-02T01:48:32.871Z,93.62
2024-02-02T01:49:28.027Z,93.58
2024-02-02T01:50:23.839Z,93.56
2024-02-02T01:51:19.008Z,93.58
2024-02-02T01:52:14.191Z,93.63
2024-02-02T01:53:09.346Z,93.71
2024-02-02T01:54:04.589Z,93.75
2024-02-02T01:54:59.761Z,93.73
2024-02-02T01:55:56.227Z,93.80
2024-02-02T01:56:51.250Z,93.86
2024-02-02T01:57:46.640Z,93.93
2024-02-02T01:58:41.593Z,94.06
2024-02-02T01:59:36.823Z,94.10
2024-02-02T02:00:32.897Z,94.14
2024-02-02T02:01:27.867Z,94.23
2024-02-02T02:02:23.090Z,94.29
2024-02-02T02:03:18.409Z,94.28
2024-02-02T02:04:13.439Z,94.30
2024-02-02T02:05:09.624Z,94.32
2024-02-02T02:06:05.546Z,94.24
2024-02-02T02:07:00.029Z,94.19
2024-02-02T02:07:55.315Z,94.17
2024-02-02T02:08:51.003Z,94.18
2024-02-02T02:09:45.622Z,94.09
2024-02-02T02:10:40.845Z,94.08
2024-02-02T02:11:40.492Z,93.96
2024-02-02T02:12:35.537Z,93.94
2024-02-02T02:13:30.586Z,93.87
2024-02-02T02:14:25.675Z,93.86
2024-02-02T02:15:20.990Z,93.86
2024-02-02T02:16:16.321Z,93.89
2024-02-02T02:17:11.670Z,94.02
2024-02-02T02:18:06.628Z,94.07
2024-02-02T02:19:03.671Z,94.15
2024-02-02T02:19:57.027Z,94.16
2024-02-02T02:20:52.033Z,94.19
2024-02-02T02:21:47.214Z,94.23
2024-02-02T02:22:43.312Z,94.28
2024-02-02T02:23:38.340Z,94.28
2024-02-02T02:24:33.691Z,94.32
2024-02-02T02:25:29.162Z,94.35
2024-02-02T02:26:24.382Z,94.43
2024-02-02T02:27:19.595Z,94.45
2024-02-02T02:28:16.191Z,94.50
2024-02-02T02:29:10.949Z,94.55
2024-02-02T02:30:06.862Z,94.56
2024-02-02T02:31:02.024Z,94.58
2024-02-02T02:31:57.258Z,94.64
2024-02-02T02:32:53.723Z,94.68
2024-02-02T02:33:49.340Z,94.70
2024-02-02T02:34:44.769Z,94.69
2024-02-02T02:35:39.735Z,94.69
2024-02-02T02:36:35.032Z,94.70
2024-02-02T02:37:30.969Z,94.71
2024-02-02T02:38:26.153Z,94.70
2024-02-02T02:39:21.815Z,94.68
2024-02-02T02:40:17.695Z,94.71
2024-02-02T02:41:12.918Z,94.67
2024-02-02T02:42:08.706Z,94.68
2024-02-02T02:43:03.885Z,94.67
2024-02-02T02:44:00.290Z,94.71
2024-02-02T02:44:54.984Z,94.72
2024-02-02T02:45:50.176Z,94.71
2024-02-02T02:46:45.978Z,94.72
2024-02-02T02:47:41.255Z,94.69
2024-02-02T02:48:36.540Z,94.67
2024-02-02T02:49:33.568Z,94.71
2024-02-02T02:50:27.434Z,94.65
2024-02-02T02:51:22.802Z,94.65
2024-02-02T02:52:19.008Z,94.61
2024-02-02T02:53:14.037Z,94.61
2024-02-02T02:54:09.779Z,94.60
2024-02-02T02:55:04.889Z,94.57
2024-02-02T02:56:00.167Z,94.57
2024-02-02T02:56:55.973Z,94.60
2024-02-02T02:57:51.217Z,94.57
2024-02-02T02:58:46.803Z,94.56
2024-02-02T02:59:41.995Z,94.56
2024-02-02T03:00:37.212Z,94.58
2024-02-02T03:01:33.093Z,94.58
2024-02-02T03:02:28.317Z,94.58
2024-02-02T03:03:23.654Z,94.56
2024-02-02T03:04:19.948Z,94.57
2024-02-02T03:05:15.084Z,94.57
2024-02-02T03:06:10.835Z,94.59
2024-02-02T03:07:06.870Z,94.61
2024-02-02T03:08:01.215Z,94.59
2024-02-02T03:08:57.720Z,94.60
2024-02-02T03:09:52.824Z,94.62
2024-02-02T03:10:48.861Z,94.58
2024-02-02T03:11:43.880Z,94.58
2024-02-02T03:12:39.280Z,94.56
2024-02-02T03:13:35.091Z,94.58
2024-02-02T03:14:30.222Z,94.58
2024-02-02T03:15:25.414Z,94.56
2024-02-02T03:16:21.758Z,94.55
2024-02-02T03:17:17.613Z,94.52
2024-02-02T03:18:12.929Z,94.53
2024-02-02T03:19:07.923Z,94.51
2024-02-02T03:20:03.428Z,94.49
2024-02-02T03:20:59.000Z,94.47
2024-02-02T03:21:54.227Z,94.45
2024-02-02T03:22:49.427Z,94.41
2024-02-02T03:23:44.563Z,94.39
2024-02-02T03:24:39.785Z,94.29
2024-02-02T03:25:36.086Z,94.28
2024-02-02T03:26:31.288Z,94.27
2024-02-02T03:27:27.164Z,94.24
2024-02-02T03:28:22.356Z,94.20
2024-02-02T03:29:19.188Z,94.15
2024-02-02T03:30:13.159Z,94.09
2024-02-02T03:31:08.358Z,94.04
2024-02-02T03:32:05.085Z,93.98
2024-02-02T03:32:59.380Z,93.97
2024-02-02T03:33:54.702Z,93.95
2024-02-02T03:34:50.970Z,93.93
2024-02-02T03:35:45.979Z,93.90
2024-02-02T03:36:41.297Z,93.88
2024-02-02T03:37:37.348Z,93.83
2024-02-02T03:38:32.602Z,93.79
2024-02-02T03:39:27.664Z,93.80
2024-02-02T03:40:22.844Z,93.75
2024-02-02T03:41:20.590Z,93.71
2024-02-02T03:42:15.758Z,93.67
2024-02-02T03:43:10.921Z,93.60
2024-02-02T03:44:06.978Z,93.62
2024-02-02T03:45:02.111Z,93.52
2024-02-02T03:45:57.198Z,93.50
2024-02-02T03:46:52.307Z,93.44
2024-02-02T03:47:47.429Z,93.50
2024-02-02T03:48:42.648Z,93.42
2024-02-02T03:49:37.535Z,93.39
2024-02-02T03:50:32.545Z,93.35
2024-02-02T03:51:27.646Z,93.32
2024-02-02T03:52:22.589Z,93.28
2024-02-02T03:53:17.711Z,93.26
2024-02-02T03:54:12.930Z,93.22
2024-02-02T03:55:07.920Z,93.19
2024-02-02T03:56:02.974Z,93.12
2024-02-02T03:56:58.062Z,93.14
2024-02-02T03:57:53.047Z,93.06
2024-02-02T03:58:48.148Z,93.00
2024-02-02T03:59:45.817Z,93.03
2024-02-02T04:00:41.110Z,93.02
2024-02-02T04:01:36.040Z,93.05
2024-02-02T04:02:31.124Z,93.00
2024-02-02T04:03:26.371Z,93.00
2024-02-02T04:04:21.511Z,93.00
2024-02-02T04:05:16.578Z,92.97
2024-02-02T04:06:11.375Z,92.92
2024-02-02T04:07:06.384Z,92.89
2024-02-02T04:08:01.489Z,92.86
2024-02-02T04:08:56.691Z,92.83
2024-02-02T04:09:51.787Z,92.77
2024-02-02T04:10:46.684Z,92.76
2024-02-02T04:11:41.759Z,92.76
2024-02-02T04:12:36.810Z,92.78
2024-02-02T04:13:31.831Z,92.79
2024-02-02T04:14:26.860Z,92.83
2024-02-02T04:15:21.950Z,92.85
2024-02-02T04:16:16.870Z,92.87
2024-02-02T04:17:11.922Z,92.88
2024-02-02T04:18:07.073Z,92.92
2024-02-02T04:19:02.161Z,92.93
2024-02-02T04:19:57.133Z,92.90
2024-02-02T04:20:52.976Z,92.92
2024-02-02T04:21:47.182Z,93.01
2024-02-02T04:22:42.216Z,93.03
2024-02-02T04:23:37.421Z,93.02
2024-02-02T04:24:32.399Z,93.07
2024-02-02T04:25:27.463Z,93.03
2024-02-02T04:26:22.545Z,93.00
2024-02-02T04:27:17.629Z,92.98
2024-02-02T04:28:12.660Z,92.96
2024-02-02T04:29:07.668Z,92.92
2024-02-02T04:30:02.743Z,92.95
2024-02-02T04:30:58.281Z,92.93
2024-02-02T04:31:53.073Z,92.98
2024-02-02T04:32:48.287Z,92.95
2024-02-02T04:33:43.541Z,92.97
2024-02-02T04:34:38.672Z,92.94
2024-02-02T04:35:33.537Z,92.92
2024-02-02T04:36:28.880Z,92.89
2024-02-02T04:37:24.024Z,92.86
2024-02-02T04:38:19.064Z,92.81
2024-02-02T04:39:14.309Z,92.84
2024-02-02T04:40:09.326Z,92.85
2024-02-02T04:41:04.654Z,92.86
2024-02-02T04:41:59.917Z,92.89
2024-02-02T04:42:54.995Z,92.86
2024-02-02T04:43:50.037Z,92.86
2024-02-02T04:44:45.365Z,92.81
2024-02-02T04:45:40.500Z,92.75
2024-02-02T04:46:35.494Z,92.79
2024-02-02T04:47:30.600Z,92.72
2024-02-02T04:48:25.845Z,92.69
2024-02-02T04:49:20.859Z,92.65
2024-02-02T04:50:15.776Z,92.63
2024-02-02T04:51:10.824Z,92.57
2024-02-02T04:52:05.910Z,92.57
2024-02-02T04:53:00.908Z,92.54
2024-02-02T04:53:56.052Z,92.54
2024-02-02T04:54:51.026Z,92.51
2024-02-02T04:55:46.085Z,92.48
2024-02-02T04:56:41.402Z,92.49
2024-02-02T04:57:36.375Z,92.44
2024-02-02T04:58:31.401Z,92.45
2024-02-02T04:59:27.039Z,92.47
2024-02-02T05:00:22.081Z,92.48
2024-02-02T05:01:17.070Z,92.50
2024-02-02T05:02:12.341Z,92.50
2024-02-02T05:03:07.435Z,92.53
2024-02-02T05:04:02.592Z,92.57
2024-02-02T05:04:57.664Z,92.56
2024-02-02T05:05:52.813Z,92.51
2024-02-02T05:06:47.945Z,92.43
2024-02-02T05:07:43.092Z,92.37
2024-02-02T05:08:38.098Z,92.30
2024-02-02T05:09:33.252Z,92.25
2024-02-02T05:10:34.235Z,92.21
2024-02-02T05:11:29.398Z,92.18
2024-02-02T05:12:24.928Z,92.12
2024-02-02T05:13:20.369Z,92.11
2024-02-02T05:14:15.690Z,92.08
2024-02-02T05:15:10.760Z,92.03
2024-02-02T05:16:07.279Z,91.97
2024-02-02T05:17:02.545Z,91.94
2024-02-02T05:17:58.391Z,91.98
2024-02-02T05:18:53.385Z,92.00
2024-02-02T05:19:48.421Z,92.03
2024-02-02T05:20:44.200Z,92.07
2024-02-02T05:21:40.233Z,92.09
2024-02-02T05:22:35.146Z,92.12
2024-02-02T05:23:30.459Z,92.17
2024-02-02T05:24:38.229Z,92.10
2024-02-02T05:25:22.455Z,92.10
2024-02-02T05:26:16.614Z,92.04
2024-02-02T05:27:11.801Z,92.02
2024-02-02T05:28:08.084Z,92.05
2024-02-02T05:29:03.329Z,92.01
2024-02-02T05:29:59.175Z,92.00
2024-02-02T05:30:54.296Z,91.94
2024-02-02T05:31:49.577Z,91.96
2024-02-02T05:32:46.430Z,91.91
2024-02-02T05:33:41.660Z,91.89
2024-02-02T05:34:36.569Z,91.82
2024-02-02T05:35:31.546Z,91.82
2024-02-02T05:36:27.340Z,91.86
2024-02-02T05:37:22.669Z,91.86
2024-02-02T05:38:17.738Z,91.84
2024-02-02T05:39:13.116Z,91.84
2024-02-02T05:40:09.198Z,91.79
2024-02-02T05:41:04.363Z,91.79
2024-02-02T05:42:00.220Z,91.75
2024-02-02T05:42:55.369Z,91.77
2024-02-02T05:43:50.763Z,91.79
2024-02-02T05:44:46.379Z,91.78
2024-02-02T05:45:41.663Z,91.80
2024-02-02T05:46:38.370Z,91.82
2024-02-02T05:47:32.773Z,91.89
2024-02-02T05:48:28.442Z,91.96
2024-02-02T05:49:24.652Z,91.97
2024-02-02T05:50:19.714Z,91.96
2024-02-02T05:51:15.043Z,91.98
2024-02-02T05:52:11.091Z,91.98
2024-02-02T05:53:06.602Z,92.00
2024-02-02T05:54:02.106Z,92.02
2024-02-02T05:54:57.924Z,92.06
2024-02-02T05:55:52.460Z,92.07
2024-02-02T05:56:48.361Z,92.11
2024-02-02T05:57:43.690Z,92.13
2024-02-02T05:58:39.533Z,92.15
2024-02-02T05:59:34.433Z,92.13
2024-02-02T06:00:29.848Z,92.17
2024-02-02T06:01:25.489Z,92.16
2024-02-02T06:02:20.719Z,92.11
2024-02-02T06:03:15.952Z,92.08
2024-02-02T06:04:12.465Z,92.08
2024-02-02T06:05:07.487Z,92.08
2024-02-02T06:06:03.448Z,92.07
2024-02-02T06:06:58.632Z,92.05
2024-02-02T06:07:53.820Z,92.06
2024-02-02T06:08:49.634Z,92.08
2024-02-02T06:09:45.002Z,92.09
2024-02-02T06:10:40.034Z,92.12
2024-02-02T06:11:35.326Z,92.14
2024-02-02T06:12:31.096Z,92.23
2024-02-02T06:13:26.394Z,92.25
2024-02-02T06:14:21.597Z,92.25
2024-02-02T06:15:17.922Z,92.28
2024-02-02T06:16:13.127Z,92.22
2024-02-02T06:17:08.938Z,92.23
2024-02-02T06:18:04.260Z,92.21
2024-02-02T06:18:59.574Z,92.17
2024-02-02T06:19:55.255Z,92.16
2024-02-02T06:20:51.185Z,92.14
2024-02-02T06:21:46.129Z,92.06
2024-02-02T06:22:41.279Z,92.08
2024-02-02T06:23:37.122Z,92.11
2024-02-02T06:24:32.587Z,92.19
2024-02-02T06:25:27.564Z,92.21
2024-02-02T06:26:23.152Z,92.22
2024-02-02T06:27:18.974Z,92.26
2024-02-02T06:28:14.134Z,92.29
2024-02-02T06:29:09.524Z,92.30
2024-02-02T06:30:04.541Z,92.32
2024-02-02T06:30:59.906Z,92.33
2024-02-02T06:31:54.968Z,92.32
2024-02-02T06:32:51.711Z,92.35
2024-02-02T06:33:45.962Z,92.37
2024-02-02T06:34:41.240Z,92.42
2024-02-02T06:35:36.192Z,92.44
2024-02-02T06:36:32.720Z,92.39
2024-02-02T06:37:28.604Z,92.34
2024-02-02T06:38:23.017Z,92.35
2024-02-02T06:39:22.482Z,92.36
2024-02-02T06:40:17.715Z,92.34
2024-02-02T06:41:12.857Z,92.33
2024-02-02T06:42:08.134Z,92.33
2024-02-02T06:43:03.174Z,92.29
2024-02-02T06:43:58.466Z,92.32
2024-02-02T06:44:53.560Z,92.24
2024-02-02T06:45:49.558Z,92.23
2024-02-02T06:46:43.467Z,92.33
2024-02-02T06:47:38.707Z,92.22
2024-02-02T06:48:33.642Z,92.20
2024-02-02T06:49:28.695Z,92.17
2024-02-02T06:50:23.895Z,92.27
2024-02-02T06:51:18.983Z,92.17
2024-02-02T06:52:13.916Z,92.13
2024-02-02T06:53:08.951Z,92.07
2024-02-02T06:54:04.154Z,92.05
2024-02-02T06:54:59.347Z,91.92
2024-02-02T06:55:54.239Z,91.93
2024-02-02T06:56:49.250Z,91.93
2024-02-02T06:57:44.210Z,91.91
2024-02-02T06:58:39.336Z,91.90
2024-02-02T06:59:34.389Z,91.91
2024-02-02T07:00:29.831Z,91.89
2024-02-02T07:01:24.582Z,91.85
2024-02-02T07:02:19.634Z,91.81
2024-02-02T07:03:14.731Z,91.74
2024-02-02T07:04:10.142Z,91.72
2024-02-02T07:05:05.581Z,91.68
2024-02-02T07:06:00.818Z,91.67
2024-02-02T07:06:55.922Z,91.61
2024-02-02T07:07:51.116Z,91.62
2024-02-02T07:08:46.034Z,91.65
2024-02-02T07:09:41.206Z,91.67
2024-02-02T07:10:36.147Z,91.71
2024-02-02T07:11:34.075Z,91.72
2024-02-02T07:12:26.210Z,91.72
2024-02-02T07:13:21.321Z,91.72
2024-02-02T07:14:16.268Z,91.69
2024-02-02T07:15:11.558Z,91.63
2024-02-02T07:16:06.465Z,91.53
2024-02-02T07:17:01.571Z,91.51
2024-02-02T07:17:56.716Z,91.39
2024-02-02T07:18:51.758Z,91.36
2024-02-02T07:19:46.803Z,91.28
2024-02-02T07:20:41.810Z,91.23
2024-02-02T07:21:39.599Z,91.16
2024-02-02T07:22:35.637Z,91.16
2024-02-02T07:23:30.351Z,91.12
2024-02-02T07:24:25.730Z,91.10
2024-02-02T07:25:20.798Z,91.11
2024-02-02T07:26:16.289Z,91.10
2024-02-02T07:27:11.358Z,91.08
2024-02-02T07:28:06.774Z,91.10
2024-02-02T07:29:02.128Z,91.12
2024-02-02T07:29:57.351Z,91.08
2024-02-02T07:30:52.869Z,91.11
2024-02-02T07:31:47.826Z,91.08
2024-02-02T07:32:43.240Z,91.11
2024-02-02T07:33:38.702Z,91.03
2024-02-02T07:34:35.455Z,91.08
2024-02-02T07:35:30.653Z,91.06
2024-02-02T07:36:26.043Z,91.03
2024-02-02T07:37:21.324Z,91.02
2024-02-02T07:38:16.642Z,91.10
2024-02-02T07:39:12.127Z,91.05
2024-02-02T07:40:07.413Z,91.04
2024-02-02T07:41:03.016Z,91.03
2024-02-02T07:41:58.374Z,91.01
2024-02-02T07:42:53.719Z,90.99
2024-02-02T07:43:49.087Z,91.03
2024-02-02T07:44:44.367Z,91.00
2024-02-02T07:45:39.692Z,91.47
2024-02-02T07:46:35.064Z,93.67
2024-02-02T07:47:30.465Z,93.64
2024-02-02T07:48:25.774Z,93.78
2024-02-02T07:49:21.707Z,93.53
2024-02-02T07:50:16.928Z,92.48
2024-02-02T07:51:12.049Z,92.13
2024-02-02T07:52:07.149Z,91.50
2024-02-02T07:53:02.307Z,90.70
2024-02-02T07:53:57.473Z,89.89
2024-02-02T07:54:56.610Z,89.34
2024-02-02T07:55:51.890Z,89.11
2024-02-02T07:56:47.111Z,89.15
2024-02-02T07:57:43.014Z,89.25
2024-02-02T07:58:38.243Z,89.46
2024-02-02T07:59:33.779Z,89.65
2024-02-02T08:00:29.822Z,89.80
2024-02-02T08:01:25.346Z,90.02
2024-02-02T08:02:20.937Z,90.20
2024-02-02T08:03:16.470Z,90.39
2024-02-02T08:04:12.171Z,90.47
2024-02-02T08:05:07.810Z,90.56
2024-02-02T08:06:03.017Z,90.65
2024-02-02T08:06:58.809Z,90.75
2024-02-02T08:07:54.126Z,90.79
2024-02-02T08:08:49.670Z,90.83
2024-02-02T08:09:46.010Z,90.84
2024-02-02T08:10:40.812Z,90.78
2024-02-02T08:11:36.089Z,90.72
2024-02-02T08:12:32.710Z,90.74
2024-02-02T08:13:27.925Z,90.73
2024-02-02T08:14:23.832Z,90.75
2024-02-02T08:15:19.118Z,90.68
2024-02-02T08:16:14.860Z,90.80
2024-02-02T08:17:10.267Z,90.84
2024-02-02T08:18:05.712Z,90.81
2024-02-02T08:19:01.443Z,90.94
2024-02-02T08:19:56.947Z,91.08
2024-02-02T08:20:52.996Z,91.16
2024-02-02T08:21:48.067Z,91.26
2024-02-02T08:22:43.424Z,91.26
2024-02-02T08:23:38.893Z,91.29
2024-02-02T08:24:35.198Z,91.29
2024-02-02T08:25:30.719Z,91.23
2024-02-02T08:26:26.288Z,91.34
2024-02-02T08:27:21.634Z,91.39
2024-02-02T08:28:17.123Z,91.43
2024-02-02T08:29:12.829Z,91.36
2024-02-02T08:30:08.011Z,91.40
2024-02-02T08:31:03.953Z,91.43
2024-02-02T08:31:59.110Z,91.47
2024-02-02T08:32:54.623Z,91.47
2024-02-02T08:33:50.387Z,91.50
2024-02-02T08:34:45.686Z,91.54
2024-02-02T08:35:41.002Z,91.58
2024-02-02T08:36:37.337Z,91.59
2024-02-02T08:37:32.734Z,91.64
2024-02-02T08:38:28.463Z,91.70
2024-02-02T08:39:23.909Z,91.72
2024-02-02T08:40:19.334Z,91.75
2024-02-02T08:41:14.965Z,91.84
2024-02-02T08:42:10.461Z,91.88
2024-02-02T08:43:06.022Z,91.93
2024-02-02T08:44:01.478Z,91.96
2024-02-02T08:44:56.976Z,92.02
2024-02-02T08:45:52.526Z,91.99
2024-02-02T08:46:47.949Z,92.00
2024-02-02T08:47:44.045Z,91.99
2024-02-02T08:48:39.597Z,92.02
2024-02-02T08:49:35.093Z,91.98
2024-02-02T08:50:30.739Z,91.96
2024-02-02T08:51:26.326Z,91.97
2024-02-02T08:52:21.504Z,92.02
2024-02-02T08:53:17.286Z,92.02
2024-02-02T08:54:12.585Z,92.07
2024-02-02T08:55:08.085Z,92.12
2024-02-02T08:56:03.246Z,92.13
2024-02-02T08:56:59.450Z,92.19
2024-02-02T08:57:54.670Z,92.15
2024-02-02T08:58:50.712Z,92.22
2024-02-02T08:59:45.921Z,92.25
2024-02-02T09:00:41.423Z,92.28
2024-02-02T09:01:37.565Z,92.32
2024-02-02T09:02:32.475Z,92.31
2024-02-02T09:03:27.918Z,92.32
2024-02-02T09:04:23.771Z,92.34
2024-02-02T09:05:19.049Z,92.34
2024-02-02T09:06:14.462Z,92.40
2024-02-02T09:07:10.860Z,92.45
2024-02-02T09:08:06.132Z,92.42
2024-02-02T09:09:02.083Z,92.48
2024-02-02T09:09:57.423Z,92.49
2024-02-02T09:10:52.920Z,92.54
2024-02-02T09:11:48.581Z,92.57
2024-02-02T09:12:44.037Z,92.56
2024-02-02T09:13:39.199Z,92.56
2024-02-02T09:14:34.524Z,92.54
2024-02-02T09:15:30.471Z,92.50
2024-02-02T09:16:25.514Z,92.59
2024-02-02T09:17:20.409Z,92.64
2024-02-02T09:18:15.616Z,92.64
2024-02-02T09:19:10.805Z,92.65
2024-02-02T09:20:05.878Z,92.66
2024-02-02T09:21:00.796Z,92.75
2024-02-02T09:21:56.162Z,92.64
2024-02-02T09:22:50.944Z,92.61
2024-02-02T09:23:46.001Z,92.60
2024-02-02T09:24:41.738Z,92.69
2024-02-02T09:25:37.057Z,92.64
2024-02-02T09:26:32.428Z,92.72
2024-02-02T09:27:27.817Z,92.73
2024-02-02T09:28:22.906Z,92.80
2024-02-02T09:29:17.916Z,92.75
2024-02-02T09:30:13.065Z,92.83
2024-02-02T09:31:08.101Z,92.83
2024-02-02T09:32:03.168Z,92.84
2024-02-02T09:33:02.235Z,92.82
2024-02-02T09:33:57.328Z,92.83
2024-02-02T09:34:52.423Z,92.83
2024-02-02T09:35:47.376Z,92.81
2024-02-02T09:36:42.429Z,92.83
2024-02-02T09:37:37.502Z,92.81
2024-02-02T09:38:33.058Z,92.77
2024-02-02T09:39:27.600Z,92.76
2024-02-02T09:40:22.642Z,92.72
2024-02-02T09:41:17.727Z,92.69
2024-02-02T09:42:13.080Z,92.57
2024-02-02T09:43:08.283Z,92.56
2024-02-02T09:44:03.435Z,92.55
2024-02-02T09:44:58.791Z,92.53
2024-02-02T09:45:54.086Z,92.50
2024-02-02T09:46:50.642Z,92.51
2024-02-02T09:47:44.791Z,92.54
2024-02-02T09:48:40.044Z,92.50
2024-02-02T09:49:34.873Z,92.48
2024-02-02T09:50:31.828Z,92.43
2024-02-02T09:51:26.824Z,92.34
2024-02-02T09:52:21.907Z,92.39
2024-02-02T09:53:16.867Z,92.32
2024-02-02T09:54:11.942Z,92.26
2024-02-02T09:55:06.983Z,92.22
2024-02-02T09:56:02.051Z,92.14
2024-02-02T09:56:57.100Z,92.13
2024-02-02T09:57:52.181Z,92.08
2024-02-02T09:58:47.201Z,92.07
2024-02-02T09:59:42.348Z,91.99
2024-02-02T10:00:37.459Z,92.06
2024-02-02T10:01:32.527Z,91.96
2024-02-02T10:02:27.741Z,91.88
2024-02-02T10:03:22.731Z,91.84
2024-02-02T10:04:17.779Z,91.83
2024-02-02T10:05:12.874Z,91.76
2024-02-02T10:06:08.436Z,91.68
2024-02-02T10:07:03.185Z,91.61
2024-02-02T10:07:58.527Z,91.54
2024-02-02T10:08:55.394Z,91.53
2024-02-02T10:09:50.670Z,91.49
2024-02-02T10:10:46.543Z,91.49
2024-02-02T10:11:41.857Z,91.48
2024-02-02T10:12:37.252Z,91.42
2024-02-02T10:13:33.127Z,91.29
2024-02-02T10:14:28.332Z,91.19
2024-02-02T10:15:24.137Z,91.12
2024-02-02T10:16:19.409Z,91.10
2024-02-02T10:17:15.000Z,91.11
2024-02-02T10:18:10.862Z,91.13
2024-02-02T10:19:06.272Z,91.09
2024-02-02T10:20:01.582Z,91.04
2024-02-02T10:20:58.143Z,90.99
2024-02-02T10:21:53.312Z,90.94
2024-02-02T10:22:49.250Z,90.89
2024-02-02T10:23:44.377Z,90.86
2024-02-02T10:24:39.936Z,90.83
2024-02-02T10:25:35.701Z,90.78
2024-02-02T10:26:31.014Z,90.65
2024-02-02T10:27:26.591Z,90.50
2024-02-02T10:28:22.045Z,90.51
2024-02-02T10:29:17.368Z,90.55
2024-02-02T10:30:13.223Z,90.44
2024-02-02T10:31:08.614Z,90.33
2024-02-02T10:32:03.904Z,90.36
2024-02-02T10:33:00.250Z,90.35
2024-02-02T10:33:55.635Z,90.39
2024-02-02T10:34:51.236Z,90.45
2024-02-02T10:35:46.680Z,90.51
2024-02-02T10:36:42.123Z,90.54
2024-02-02T10:37:37.722Z,90.58
2024-02-02T10:38:33.086Z,90.53
2024-02-02T10:39:28.961Z,90.50
2024-02-02T10:40:24.201Z,90.52
2024-02-02T10:41:19.828Z,90.55
2024-02-02T10:42:15.670Z,90.61
2024-02-02T10:43:10.897Z,90.69
2024-02-02T10:44:06.368Z,90.78
2024-02-02T10:45:02.568Z,90.81
2024-02-02T10:45:57.866Z,90.86
2024-02-02T10:46:53.710Z,90.91
2024-02-02T10:47:49.321Z,90.93
2024-02-02T10:48:44.773Z,90.89
2024-02-02T10:49:40.369Z,90.91
2024-02-02T10:50:35.687Z,90.87
2024-02-02T10:51:31.441Z,90.82
2024-02-02T10:52:26.770Z,90.81
2024-02-02T10:53:22.206Z,90.82
2024-02-02T10:54:18.064Z,90.75
2024-02-02T10:55:13.301Z,90.75
2024-02-02T10:56:08.622Z,90.76
2024-02-02T10:57:04.909Z,90.76
2024-02-02T10:58:00.208Z,90.76
2024-02-02T10:58:56.072Z,90.75
2024-02-02T10:59:51.495Z,90.70
2024-02-02T11:00:47.080Z,90.69
2024-02-02T11:01:42.780Z,90.62
2024-02-02T11:02:37.984Z,90.63
2024-02-02T11:03:34.368Z,90.57
2024-02-02T11:04:29.041Z,90.63
2024-02-02T11:05:24.479Z,90.62
2024-02-02T11:06:20.955Z,90.49
2024-02-02T11:07:16.463Z,90.44
2024-02-02T11:08:11.433Z,90.47
2024-02-02T11:09:06.894Z,90.44
2024-02-02T11:10:02.976Z,90.45
2024-02-02T11:10:58.280Z,90.42
2024-02-02T11:11:54.156Z,90.41
2024-02-02T11:12:49.435Z,90.30
2024-02-02T11:13:44.847Z,90.27
2024-02-02T11:14:41.015Z,90.27
2024-02-02T11:15:36.789Z,90.17
2024-02-02T11:16:32.046Z,90.14
2024-02-02T11:17:27.781Z,90.01
2024-02-02T11:18:23.445Z,89.99
2024-02-02T11:19:18.585Z,89.92
2024-02-02T11:20:14.481Z,89.85
2024-02-02T11:21:09.829Z,89.78
2024-02-02T11:22:05.817Z,89.69
2024-02-02T11:23:01.119Z,89.64
2024-02-02T11:23:57.563Z,89.63
2024-02-02T11:24:52.186Z,89.56
2024-02-02T11:25:47.538Z,89.39
2024-02-02T11:26:44.518Z,89.27
2024-02-02T11:27:38.282Z,89.10
2024-02-02T11:28:33.454Z,89.04
2024-02-02T11:29:28.998Z,89.02
2024-02-02T11:30:24.154Z,88.99
2024-02-02T11:31:19.132Z,88.74
2024-02-02T11:32:14.242Z,88.62
2024-02-02T11:33:09.571Z,88.50
2024-02-02T11:34:04.428Z,88.38
2024-02-02T11:34:59.485Z,87.76
2024-02-02T11:35:54.416Z,87.07
2024-02-02T11:36:49.535Z,86.52
2024-02-02T11:37:44.575Z,86.16
2024-02-02T11:38:39.687Z,85.68
2024-02-02T11:39:35.596Z,85.12
2024-02-02T11:40:29.938Z,85.09
2024-02-02T11:41:25.461Z,84.52
2024-02-02T11:42:20.044Z,83.89
2024-02-02T11:43:15.061Z,83.69
2024-02-02T11:44:10.148Z,83.94
2024-02-02T11:45:06.380Z,83.92
2024-02-02T11:46:01.681Z,83.82
2024-02-02T11:46:56.952Z,83.81
2024-02-02T11:47:53.690Z,84.20
2024-02-02T11:48:49.187Z,84.52
2024-02-02T11:49:44.530Z,84.84
2024-02-02T11:50:39.872Z,85.07
2024-02-02T11:51:35.706Z,85.16
2024-02-02T11:52:31.034Z,85.26
2024-02-02T11:53:26.469Z,85.27